Time;durP1;ratioP1;P1;durP2;ratioP2;P2;SDS_P1;SDS_P2;PMS_P1;PMS_P2;Temp;Humidity;BMP_temperature;BMP_pressure;BME280_temperature;BME280_humidity;BME280_pressure;Samples;Min_cycle;Max_cycle;Signal;HPM_P1;HPM_P2
2020/12/25 00:00:08;;;;;;;;;8.00;5.50;;;;;12.97;58.96;97503.09;4710514;29;102948;-76
2020/12/25 00:02:35;;;;;;;;;5.25;5.00;;;;;12.98;59.80;97499.31;4719298;28;106032;-76
2020/12/25 00:05:02;;;;;;;;;6.00;6.00;;;;;12.96;59.26;97515.03;4711195;28;108680;-76
2020/12/25 00:07:30;;;;;;;;;6.75;5.50;;;;;12.96;58.86;97507.72;4705067;29;102964;-76
2020/12/25 00:09:57;;;;;;;;;4.75;4.00;;;;;12.96;59.63;97515.03;4703752;29;102810;-76
2020/12/25 00:12:24;;;;;;;;;6.25;6.00;;;;;12.96;58.86;97525.88;4713084;29;103025;-76
2020/12/25 00:14:52;;;;;;;;;4.25;3.75;;;;;12.96;58.95;97531.31;4706607;29;103929;-76
2020/12/25 00:17:18;;;;;;;;;6.00;5.00;;;;;12.95;59.47;97526.94;4709207;29;102927;-76
2020/12/25 00:19:45;;;;;;;;;5.00;5.00;;;;;12.95;59.59;97535.91;4683300;29;103747;-76
2020/12/25 00:22:12;;;;;;;;;7.00;6.25;;;;;12.94;59.39;97536.16;4668010;29;104827;-76
2020/12/25 00:24:40;;;;;;;;;6.50;6.25;;;;;12.94;59.03;97541.56;4685295;28;104561;-76
2020/12/25 00:27:07;;;;;;;;;5.00;4.00;;;;;12.94;58.47;97547.00;4698741;29;103137;-76
2020/12/25 00:29:33;;;;;;;;;5.00;4.00;;;;;12.92;59.59;97557.28;4700592;29;102882;-76
2020/12/25 00:32:00;;;;;;;;;5.00;5.00;;;;;12.94;59.18;97563.28;4702909;28;104154;-76
2020/12/25 00:34:27;;;;;;;;;5.00;5.00;;;;;12.93;58.47;97548.06;4699909;29;104398;-77
2020/12/25 00:36:54;;;;;;;;;5.00;4.75;;;;;12.92;58.56;97560.00;4703150;29;102921;-76
2020/12/25 00:39:21;;;;;;;;;5.75;4.75;;;;;12.91;59.01;97569.19;4699191;29;105919;-76
2020/12/25 00:41:49;;;;;;;;;4.00;4.00;;;;;12.92;58.58;97570.84;4697755;29;103121;-76
2020/12/25 00:44:16;;;;;;;;;7.00;4.00;;;;;12.91;58.94;97566.50;4702276;29;104404;-76
2020/12/25 00:46:43;;;;;;;;;4.50;4.00;;;;;12.91;59.31;97571.91;4706841;28;103141;-76
2020/12/25 00:49:16;;;;;;;;;5.50;5.00;;;;;12.91;59.17;97572.75;4708321;29;102764;-76
2020/12/25 00:51:48;;;;;;;;;6.00;5.00;;;;;12.91;58.31;97582.78;4712515;29;103046;-76
2020/12/25 00:54:14;;;;;;;;;7.00;4.00;;;;;12.90;58.40;97581.13;4697141;29;104009;-76
2020/12/25 00:56:41;;;;;;;;;5.50;4.00;;;;;12.90;58.35;97578.41;4703220;29;102970;-76
2020/12/25 00:59:08;;;;;;;;;4.00;4.00;;;;;12.89;59.23;97591.13;4709990;28;102863;-76
2020/12/25 01:01:46;;;;;;;;;5.25;4.00;;;;;12.90;58.79;97600.09;4703736;28;102866;-76
2020/12/25 01:04:19;;;;;;;;;3.00;3.00;;;;;12.89;59.15;97593.03;4595083;29;108746;-76
2020/12/25 01:06:46;;;;;;;;;5.50;4.75;;;;;12.89;58.96;97603.88;4711830;29;102711;-76
2020/12/25 01:09:13;;;;;;;;;4.00;4.00;;;;;12.89;58.55;97603.88;4727743;29;104274;-76
2020/12/25 01:11:40;;;;;;;;;5.00;5.00;;;;;12.88;58.90;97605.75;4734519;29;102923;-77
2020/12/25 01:14:07;;;;;;;;;2.00;2.00;;;;;12.87;59.00;97611.44;4688873;29;103923;-76
2020/12/25 01:16:34;;;;;;;;;3.75;3.00;;;;;12.87;59.14;97611.44;4482545;29;102959;-76
2020/12/25 01:19:01;;;;;;;;;6.00;4.00;;;;;12.88;58.80;97608.47;4688525;29;103038;-77
2020/12/25 01:21:28;;;;;;;;;4.00;4.00;;;;;12.87;59.14;97603.31;4715186;29;103010;-77
2020/12/25 01:23:55;;;;;;;;;5.50;3.00;;;;;12.85;58.84;97606.25;4695731;28;104507;-77
2020/12/25 01:26:22;;;;;;;;;4.00;4.00;;;;;12.84;58.75;97610.03;4698415;28;102819;-77
2020/12/25 01:28:49;;;;;;;;;3.50;3.50;;;;;12.86;58.40;97612.50;4694053;29;102741;-76
2020/12/25 01:31:15;;;;;;;;;4.00;4.00;;;;;12.86;59.18;97613.34;4704051;29;103100;-76
2020/12/25 01:33:42;;;;;;;;;6.25;5.75;;;;;12.86;58.35;97617.94;4704754;29;109369;-76
2020/12/25 01:36:09;;;;;;;;;4.00;4.00;;;;;12.85;59.06;97621.69;4716204;28;102851;-76
2020/12/25 01:38:35;;;;;;;;;3.75;3.00;;;;;12.86;58.67;97628.78;4706099;29;102954;-76
2020/12/25 01:41:02;;;;;;;;;5.00;3.25;;;;;12.86;59.19;97634.22;4702914;28;103603;-76
2020/12/25 01:43:28;;;;;;;;;3.00;3.00;;;;;12.84;58.21;97626.28;4694878;28;103666;-76
2020/12/25 01:45:55;;;;;;;;;4.00;3.00;;;;;12.84;58.24;97630.91;4711254;28;104535;-76
2020/12/25 01:48:22;;;;;;;;;3.75;3.75;;;;;12.84;58.98;97623.59;4696779;29;103110;-77
2020/12/25 01:50:51;;;;;;;;;3.50;3.00;;;;;12.85;58.38;97624.41;4689969;29;103208;-77
2020/12/25 01:53:20;;;;;;;;;3.25;3.25;;;;;12.84;58.36;97620.03;4698609;29;103964;-76
2020/12/25 01:55:47;;;;;;;;;4.00;3.00;;;;;12.84;58.93;97622.75;4696795;28;103963;-76
2020/12/25 01:58:13;;;;;;;;;3.00;2.00;;;;;12.86;59.02;97636.91;4660883;29;103023;-77
2020/12/25 02:00:40;;;;;;;;;3.00;3.00;;;;;12.84;58.01;97637.16;4686130;29;103245;-77
2020/12/25 02:03:07;;;;;;;;;3.00;3.00;;;;;12.84;58.70;97639.03;4689653;29;103946;-77
2020/12/25 02:05:34;;;;;;;;;3.00;3.00;;;;;12.84;58.14;97649.88;4695526;29;103649;-76
2020/12/25 02:08:01;;;;;;;;;2.00;2.00;;;;;12.81;58.65;97653.91;4693926;29;102884;-76
2020/12/25 02:10:27;;;;;;;;;1.50;1.50;;;;;12.81;58.77;97658.50;4698328;29;103032;-76
2020/12/25 02:12:54;;;;;;;;;2.00;2.00;;;;;12.81;58.64;97656.63;4698137;28;103868;-76
2020/12/25 02:15:21;;;;;;;;;3.00;3.00;;;;;12.81;58.52;97658.50;4702903;28;103011;-76
2020/12/25 02:17:48;;;;;;;;;3.25;3.00;;;;;12.81;58.23;97658.50;4705405;29;102847;-76
2020/12/25 02:20:15;;;;;;;;;2.00;2.00;;;;;12.81;59.11;97663.94;4700791;29;102849;-76
2020/12/25 02:22:42;;;;;;;;;1.50;1.50;;;;;12.81;58.80;97666.66;4705696;29;109589;-77
2020/12/25 02:25:10;;;;;;;;;2.75;2.75;;;;;12.82;58.89;97669.13;4707043;29;102925;-76
2020/12/25 02:27:37;;;;;;;;;3.50;3.25;;;;;12.82;58.90;97671.03;4705921;29;103978;-76
2020/12/25 02:30:04;;;;;;;;;2.50;2.50;;;;;12.81;58.83;97661.22;4710594;28;103188;-76
2020/12/25 02:32:32;;;;;;;;;2.00;2.00;;;;;12.80;58.10;97649.53;4700465;28;104520;-77
2020/12/25 02:35:11;;;;;;;;;3.00;3.00;;;;;12.81;59.03;97658.50;4703227;29;102887;-76
2020/12/25 02:37:38;;;;;;;;;3.50;2.00;;;;;12.80;58.20;97662.28;4701009;29;102839;-76
2020/12/25 02:40:05;;;;;;;;;2.00;2.00;;;;;12.80;58.26;97663.09;4716549;28;103038;-76
2020/12/25 02:42:32;;;;;;;;;2.75;2.00;;;;;12.80;58.46;97665.00;4696403;29;104213;-77
2020/12/25 02:44:58;;;;;;;;;2.75;2.75;;;;;12.79;57.88;97656.03;4694648;28;102869;-77
2020/12/25 02:47:25;;;;;;;;;2.25;2.25;;;;;12.79;57.96;97669.59;4704409;28;102866;-77
2020/12/25 02:49:57;;;;;;;;;2.50;2.50;;;;;12.78;58.81;97669.84;4710103;29;103081;-76
2020/12/25 02:52:24;;;;;;;;;2.25;1.00;;;;;12.79;58.02;97676.91;4698875;29;104552;-76
2020/12/25 02:54:51;;;;;;;;;2.50;2.00;;;;;12.78;58.52;97677.97;4719298;28;104394;-76
2020/12/25 02:57:18;;;;;;;;;2.75;2.75;;;;;12.78;57.94;97676.09;4707547;28;102953;-76
2020/12/25 02:59:45;;;;;;;;;2.75;2.50;;;;;12.78;58.87;97692.38;4709539;29;102981;-76
2020/12/25 03:02:12;;;;;;;;;2.00;1.50;;;;;12.78;58.44;97691.56;4705288;28;109688;-77
2020/12/25 03:04:38;;;;;;;;;1.75;1.00;;;;;12.78;58.12;97694.25;4705699;28;102983;-76
2020/12/25 03:07:05;;;;;;;;;3.00;3.00;;;;;12.77;58.57;97701.56;4703104;29;102915;-77
2020/12/25 03:09:32;;;;;;;;;2.50;2.00;;;;;12.77;58.57;97693.44;4701505;29;103671;-77
2020/12/25 03:11:58;;;;;;;;;3.75;3.00;;;;;12.78;58.32;97696.97;4709448;29;104317;-77
2020/12/25 03:14:25;;;;;;;;;2.75;2.00;;;;;12.76;57.86;97699.09;4704927;28;102881;-76
2020/12/25 03:16:51;;;;;;;;;2.00;2.00;;;;;12.77;58.05;97706.16;4699694;29;102928;-76
2020/12/25 03:19:18;;;;;;;;;2.00;1.75;;;;;12.78;58.64;97699.69;4701604;28;103291;-77
2020/12/25 03:21:45;;;;;;;;;2.00;2.00;;;;;12.75;58.62;97697.44;4691436;29;104180;-76
2020/12/25 03:24:12;;;;;;;;;1.00;1.00;;;;;12.77;58.57;97706.16;4705313;29;103542;-77
2020/12/25 03:26:38;;;;;;;;;2.00;2.00;;;;;12.75;57.94;97697.44;4713016;28;102950;-77
2020/12/25 03:29:05;;;;;;;;;2.00;1.00;;;;;12.76;57.96;97699.09;4697686;29;102857;-77
2020/12/25 03:31:32;;;;;;;;;2.50;2.00;;;;;12.76;58.25;97699.09;4703598;28;104034;-76
2020/12/25 03:33:58;;;;;;;;;2.00;2.00;;;;;12.76;58.78;97696.38;4709053;29;102978;-77
2020/12/25 03:36:25;;;;;;;;;2.00;2.00;;;;;12.76;57.86;97699.91;4707926;29;103002;-77
2020/12/25 03:38:51;;;;;;;;;2.75;2.75;;;;;12.73;58.19;97702.28;4698780;29;102876;-77
2020/12/25 03:41:18;;;;;;;;;2.00;2.00;;;;;12.76;58.73;97707.22;4700696;28;104051;-77
2020/12/25 03:43:45;;;;;;;;;1.00;1.00;;;;;12.75;57.88;97709.09;4706870;28;103126;-76
2020/12/25 03:46:12;;;;;;;;;2.00;1.00;;;;;12.75;57.91;97708.28;4702872;28;103032;-76
2020/12/25 03:48:39;;;;;;;;;1.25;1.25;;;;;12.75;58.10;97717.25;4705542;28;103035;-76
2020/12/25 03:51:06;;;;;;;;;1.00;1.00;;;;;12.74;58.75;97720.22;4692357;29;104675;-76
2020/12/25 03:53:33;;;;;;;;;2.00;2.00;;;;;12.73;58.23;97718.56;4703016;28;103518;-77
2020/12/25 03:55:59;;;;;;;;;2.00;1.00;;;;;12.74;58.18;97728.34;4678407;28;104074;-76
2020/12/25 03:58:26;;;;;;;;;1.50;1.00;;;;;12.74;58.01;97722.94;4694134;28;104198;-76
2020/12/25 04:00:53;;;;;;;;;1.75;1.75;;;;;12.74;58.60;97728.34;4702003;29;104200;-77
2020/12/25 04:03:19;;;;;;;;;2.00;1.25;;;;;12.74;58.50;97739.19;4709752;28;103444;-77
2020/12/25 04:05:46;;;;;;;;;2.50;2.00;;;;;12.73;58.67;97740.25;4715520;29;103528;-77
2020/12/25 04:08:12;;;;;;;;;1.00;1.00;;;;;12.71;58.23;97729.63;4700811;29;103121;-77
2020/12/25 04:10:39;;;;;;;;;1.25;1.25;;;;;12.73;58.89;97742.97;4709669;28;103911;-76
2020/12/25 04:13:06;;;;;;;;;2.00;1.00;;;;;12.72;57.97;97738.59;4713147;29;103717;-77
2020/12/25 04:15:33;;;;;;;;;1.75;1.00;;;;;12.70;57.67;97740.75;4698743;28;103118;-76
2020/12/25 04:17:59;;;;;;;;;1.50;1.00;;;;;12.71;58.53;97740.47;4695464;29;102932;-77
2020/12/25 04:20:26;;;;;;;;;4.00;2.00;;;;;12.71;58.17;97745.91;4700199;28;104398;-77
2020/12/25 04:22:53;;;;;;;;;2.75;1.75;;;;;12.71;58.59;97745.91;4697541;29;103903;-77
2020/12/25 04:25:19;;;;;;;;;2.00;2.00;;;;;12.70;58.23;97757.81;4707081;28;103643;-77
2020/12/25 04:27:47;;;;;;;;;1.75;1.00;;;;;12.70;58.31;97763.22;4713903;29;103244;-77
2020/12/25 04:30:14;;;;;;;;;1.50;1.00;;;;;12.70;58.25;97765.94;4711638;29;108728;-77
2020/12/25 04:32:40;;;;;;;;;1.50;1.00;;;;;12.71;58.72;97750.50;4705952;28;102937;-76
2020/12/25 04:35:07;;;;;;;;;2.25;2.00;;;;;12.70;58.00;97759.72;4709725;28;104200;-76
2020/12/25 04:37:33;;;;;;;;;1.00;1.00;;;;;12.70;57.67;97755.09;4707050;29;102932;-77
2020/12/25 04:40:00;;;;;;;;;0.50;0.50;;;;;12.69;58.56;97755.34;4704667;28;104192;-76
2020/12/25 04:42:27;;;;;;;;;2.00;1.00;;;;;12.70;58.46;97765.16;4696327;28;103178;-76
2020/12/25 04:44:54;;;;;;;;;0.75;0.75;;;;;12.70;57.81;97770.56;4705653;29;103253;-76
2020/12/25 04:47:20;;;;;;;;;1.00;1.00;;;;;12.67;58.30;97762.88;4698150;28;103114;-76
2020/12/25 04:49:48;;;;;;;;;0.75;0.75;;;;;12.69;58.13;97774.34;4712189;28;103920;-76
2020/12/25 04:52:14;;;;;;;;;0.75;0.75;;;;;12.68;58.16;97772.69;4716573;28;102764;-76
2020/12/25 04:54:41;;;;;;;;;1.00;1.00;;;;;12.68;58.36;97778.94;4707068;29;103226;-77
2020/12/25 04:57:08;;;;;;;;;0.75;0.75;;;;;12.69;58.48;97785.19;4697367;29;103161;-77
2020/12/25 04:59:35;;;;;;;;;1.00;1.00;;;;;12.66;57.60;97775.63;4705861;29;104217;-76
2020/12/25 05:02:04;;;;;;;;;1.00;1.00;;;;;12.67;58.39;97776.44;4704032;28;103550;-77
2020/12/25 05:04:30;;;;;;;;;1.00;1.00;;;;;12.66;57.98;97786.47;4700338;28;102822;-76
2020/12/25 05:07:00;;;;;;;;;1.00;1.00;;;;;12.68;58.41;97778.09;4714223;28;102951;-76
2020/12/25 05:09:26;;;;;;;;;1.00;1.00;;;;;12.66;58.72;97781.03;4712589;28;103985;-77
2020/12/25 05:11:54;;;;;;;;;1.50;1.00;;;;;12.66;58.61;97780.22;4699530;29;102940;-77
2020/12/25 05:14:30;;;;;;;;;1.00;1.00;;;;;12.66;58.37;97782.94;4702059;29;102784;-77
2020/12/25 05:16:57;;;;;;;;;1.00;0.00;;;;;12.66;58.72;97791.06;4704723;28;110918;-77
2020/12/25 05:19:28;;;;;;;;;1.25;1.25;;;;;12.66;57.97;97783.75;4695791;29;104058;-76
2020/12/25 05:21:56;;;;;;;;;1.00;0.00;;;;;12.65;58.61;97792.16;4721587;28;103064;-76
2020/12/25 05:24:23;;;;;;;;;1.00;1.00;;;;;12.64;57.72;97794.03;4701842;28;102835;-76
2020/12/25 05:26:53;;;;;;;;;1.00;1.00;;;;;12.65;57.91;97794.84;4710153;28;103621;-77
2020/12/25 05:29:24;;;;;;;;;1.00;1.00;;;;;12.63;57.92;97786.94;4708865;29;104089;-77
2020/12/25 05:31:51;;;;;;;;;1.00;1.00;;;;;12.64;58.24;97798.63;4708771;29;103248;-77
2020/12/25 05:34:19;;;;;;;;;0.00;0.00;;;;;12.64;57.89;97804.88;4696621;29;103034;-77
2020/12/25 05:36:50;;;;;;;;;1.50;1.00;;;;;12.65;58.55;97803.00;4709510;28;103722;-76
2020/12/25 05:39:34;;;;;;;;;2.00;1.00;;;;;12.64;57.84;97809.47;4707958;28;104631;-76
2020/12/25 05:42:05;;;;;;;;;0.00;0.00;;;;;12.66;58.10;97818.19;4690006;29;103862;-77
2020/12/25 05:44:47;;;;;;;;;1.00;1.00;;;;;12.64;57.83;97814.91;4691550;29;106426;-77
2020/12/25 05:47:15;;;;;;;;;2.00;1.50;;;;;12.64;58.18;97825.75;4705543;29;103098;-77
2020/12/25 05:49:41;;;;;;;;;1.75;1.00;;;;;12.64;57.75;97814.91;4712170;29;104659;-76
2020/12/25 05:52:08;;;;;;;;;0.00;0.00;;;;;12.64;57.67;97828.44;4701611;29;102899;-77
2020/12/25 05:54:35;;;;;;;;;0.50;0.50;;;;;12.63;58.53;97829.50;4694813;28;102989;-77
2020/12/25 05:57:02;;;;;;;;;0.75;0.75;;;;;12.63;57.77;97834.94;4707257;28;103183;-77
2020/12/25 05:59:30;;;;;;;;;0.00;0.00;;;;;12.62;57.83;97833.28;4695189;29;104376;-77
2020/12/25 06:02:01;;;;;;;;;1.00;0.50;;;;;12.63;57.86;97834.94;4688393;29;104291;-77
2020/12/25 06:04:32;;;;;;;;;0.75;0.75;;;;;12.61;57.86;97826.22;4706601;28;102989;-77
2020/12/25 06:06:59;;;;;;;;;1.00;1.00;;;;;12.61;58.48;97839.78;4697826;29;103193;-77
2020/12/25 06:09:30;;;;;;;;;0.25;0.25;;;;;12.62;57.85;97842.25;4704470;28;104570;-77
2020/12/25 06:11:57;;;;;;;;;0.50;0.00;;;;;12.61;57.82;97850.63;4696682;28;104075;-76
2020/12/25 06:14:23;;;;;;;;;0.00;0.00;;;;;12.60;57.51;97841.66;4695141;29;104399;-77
2020/12/25 06:16:59;;;;;;;;;0.75;0.00;;;;;12.60;58.23;97863.34;4705801;29;102934;-77
2020/12/25 06:19:49;;;;;;;;;0.00;0.00;;;;;12.59;57.69;97856.28;4699673;28;105560;-77
2020/12/25 06:22:24;;;;;;;;;0.00;0.00;;;;;12.61;57.94;97858.75;4704655;29;104294;-77
2020/12/25 06:24:51;;;;;;;;;0.00;0.00;;;;;12.60;58.46;97868.78;4695195;29;102813;-77
2020/12/25 06:27:18;;;;;;;;;0.00;0.00;;;;;12.57;58.11;97871.09;4692368;29;104399;-77
2020/12/25 06:29:44;;;;;;;;;0.50;0.50;;;;;12.57;58.28;97876.53;4699021;29;108547;-77
2020/12/25 06:32:11;;;;;;;;;1.50;0.00;;;;;12.58;57.85;97880.91;4703354;29;102955;-77
2020/12/25 06:34:48;;;;;;;;;0.00;0.00;;;;;12.59;58.31;97879.84;4709335;28;103310;-77
2020/12/25 06:37:15;;;;;;;;;0.00;0.00;;;;;12.59;58.36;97877.13;4679102;29;103074;-77
2020/12/25 06:39:51;;;;;;;;;0.00;0.00;;;;;12.59;57.79;97882.56;4692557;29;104078;-77
2020/12/25 06:42:24;;;;;;;;;0.25;0.25;;;;;12.56;58.18;97880.31;4693331;28;104603;-77
2020/12/25 06:44:51;;;;;;;;;0.00;0.00;;;;;12.54;57.57;97885.97;4697415;29;102954;-77
2020/12/25 06:47:34;;;;;;;;;1.00;0.00;;;;;12.56;57.69;97885.75;4702904;29;106317;-77
2020/12/25 06:50:12;;;;;;;;;0.00;0.00;;;;;12.55;58.37;97890.34;4584699;29;109079;-77
2020/12/25 06:53:00;;;;;;;;;0.00;0.00;;;;;12.55;57.64;97895.75;4706441;29;104414;-77
2020/12/25 06:55:42;;;;;;;;;0.00;0.00;;;;;12.56;57.94;97894.72;4653605;28;103226;-77
2020/12/25 06:58:10;;;;;;;;;1.00;1.00;;;;;12.55;58.50;97903.06;4701829;29;103025;-77
2020/12/25 07:00:40;;;;;;;;;1.00;0.00;;;;;12.53;57.79;97898.69;4698916;28;104010;-77
2020/12/25 07:03:13;;;;;;;;;0.75;0.75;;;;;12.55;57.44;97897.66;4705125;29;106150;-77
2020/12/25 07:05:47;;;;;;;;;1.00;1.00;;;;;12.55;57.53;97908.50;4712520;29;103897;-77
2020/12/25 07:08:33;;;;;;;;;1.00;1.00;;;;;12.54;57.94;97915.78;4693546;29;102998;-77
2020/12/25 07:11:03;;;;;;;;;1.75;1.00;;;;;12.52;58.24;97921.44;4652146;28;108353;-76
2020/12/25 07:13:34;;;;;;;;;1.00;0.25;;;;;12.54;58.00;97923.94;4700506;28;103867;-77
2020/12/25 07:16:00;;;;;;;;;0.00;0.00;;;;;12.53;58.53;97920.38;4707443;29;103532;-78
2020/12/25 07:18:27;;;;;;;;;1.00;0.00;;;;;12.53;58.34;97928.53;4716167;29;103062;-78
2020/12/25 07:20:58;;;;;;;;;0.00;0.00;;;;;12.57;58.39;97933.47;4711620;28;104081;-77
2020/12/25 07:23:24;;;;;;;;;0.00;0.00;;;;;12.59;57.68;97931.38;4695915;28;103457;-77
2020/12/25 07:25:58;;;;;;;;;1.00;1.00;;;;;12.59;58.32;97943.06;4706998;28;102802;-77
2020/12/25 07:28:26;;;;;;;;;1.00;0.00;;;;;12.58;57.75;97935.97;4712251;28;105108;-77
2020/12/25 07:30:53;;;;;;;;;0.25;0.00;;;;;12.56;57.99;97942.69;4713711;28;104459;-77
2020/12/25 07:33:20;;;;;;;;;0.00;0.00;;;;;12.55;57.86;97941.03;4709471;29;104131;-77
2020/12/25 07:35:48;;;;;;;;;1.00;1.00;;;;;12.55;57.95;97941.88;4718038;28;103758;-77
2020/12/25 07:38:26;;;;;;;;;0.00;0.00;;;;;12.55;57.52;97941.03;4703711;28;103012;-77
2020/12/25 07:40:53;;;;;;;;;0.50;0.00;;;;;12.55;58.35;97943.75;4708286;28;104523;-77
2020/12/25 07:43:20;;;;;;;;;0.25;0.25;;;;;12.52;58.06;97940.41;4711418;28;103104;-77
2020/12/25 07:45:47;;;;;;;;;0.50;0.50;;;;;12.53;57.50;97939.38;4716829;28;102923;-77
2020/12/25 07:48:14;;;;;;;;;1.00;1.00;;;;;12.52;57.66;97951.28;4704930;29;102781;-77
2020/12/25 07:50:42;;;;;;;;;1.00;0.00;;;;;12.52;57.92;97945.84;4711840;29;104072;-77
2020/12/25 07:53:14;;;;;;;;;0.50;0.50;;;;;12.53;57.48;97944.78;4700212;29;103175;-77
2020/12/25 07:55:49;;;;;;;;;0.00;0.00;;;;;12.53;58.16;97939.38;4694129;28;102958;-77
2020/12/25 07:58:17;;;;;;;;;0.00;0.00;;;;;12.52;58.18;97937.72;4701807;29;102967;-77
2020/12/25 08:00:44;;;;;;;;;1.00;1.00;;;;;12.55;57.99;97951.88;4704102;29;108632;-77
2020/12/25 08:03:11;;;;;;;;;0.75;0.75;;;;;12.53;57.45;97942.09;4696668;29;103930;-77
2020/12/25 08:05:38;;;;;;;;;0.00;0.00;;;;;12.55;57.91;97947.28;4708092;29;103175;-76
2020/12/25 08:08:05;;;;;;;;;0.00;0.00;;;;;12.56;57.47;97948.94;4699457;29;104467;-76
2020/12/25 08:10:34;;;;;;;;;0.00;0.00;;;;;12.56;58.02;97948.13;4708513;28;104175;-77
2020/12/25 08:13:06;;;;;;;;;1.00;1.00;;;;;12.56;57.44;97954.38;4700717;28;102831;-76
2020/12/25 08:15:33;;;;;;;;;0.00;0.00;;;;;12.57;57.19;97960.59;4704301;29;104571;-77
2020/12/25 08:18:03;;;;;;;;;1.00;1.00;;;;;12.57;57.10;97966.03;4709012;29;103195;-77
2020/12/25 08:20:31;;;;;;;;;0.00;0.00;;;;;12.57;57.31;97974.16;4682648;28;104344;-77
2020/12/25 08:23:01;;;;;;;;;0.00;0.00;;;;;12.55;57.58;97979.00;4702457;29;102993;-77
2020/12/25 08:25:28;;;;;;;;;0.00;0.00;;;;;12.59;57.28;97991.88;4699875;29;103054;-77
2020/12/25 08:27:56;;;;;;;;;0.00;0.00;;;;;12.56;57.95;97988.78;4710340;29;102914;-77
2020/12/25 08:30:23;;;;;;;;;0.00;0.00;;;;;12.57;57.09;97993.13;4694893;29;104512;-77
2020/12/25 08:32:57;;;;;;;;;0.00;0.00;;;;;12.56;57.29;98000.47;4709085;29;103744;-77
2020/12/25 08:35:25;;;;;;;;;0.00;0.00;;;;;12.58;57.30;97998.34;4706363;29;102852;-84
2020/12/25 08:38:10;;;;;;;;;0.00;0.00;;;;;12.53;57.34;97993.59;4702477;28;103069;-77
2020/12/25 08:40:37;;;;;;;;;1.00;1.00;;;;;12.57;57.71;98001.28;4707943;28;104195;-77
2020/12/25 08:43:14;;;;;;;;;0.00;0.00;;;;;12.58;57.33;97995.63;4703995;29;102933;-82
2020/12/25 08:46:00;;;;;;;;;0.00;0.00;;;;;12.57;58.12;97995.84;4670815;29;102979;-78
2020/12/25 08:48:27;;;;;;;;;1.00;0.00;;;;;12.58;57.99;98009.19;4591883;28;103040;-77
2020/12/25 08:51:10;;;;;;;;;0.00;0.00;;;;;12.56;57.30;98014.03;4676999;29;105325;-78
2020/12/25 08:53:37;;;;;;;;;2.00;0.00;;;;;12.57;57.49;98017.53;4694136;28;103012;-77
2020/12/25 08:56:17;;;;;;;;;1.00;0.00;;;;;12.55;58.23;98017.78;4692896;29;102995;-77
2020/12/25 08:59:06;;;;;;;;;0.00;0.00;;;;;12.56;57.85;98024.06;4683275;29;103022;-78
2020/12/25 09:01:34;;;;;;;;;1.00;0.00;;;;;12.56;57.58;98029.47;4623987;29;108934;-78
2020/12/25 09:04:01;;;;;;;;;1.00;1.00;;;;;12.56;57.71;98024.88;4681199;28;104342;-77
2020/12/25 09:06:28;;;;;;;;;0.00;0.00;;;;;12.55;58.10;98023.22;4676156;29;104184;-79
2020/12/25 09:08:54;;;;;;;;;0.00;0.00;;;;;12.57;57.19;98025.69;4677112;29;102922;-85
2020/12/25 09:11:23;;;;;;;;;0.50;0.50;;;;;12.56;57.22;98018.63;4671777;29;104481;-77
2020/12/25 09:13:50;;;;;;;;;0.00;0.00;;;;;12.56;57.16;98019.47;4671188;29;105341;-77
2020/12/25 09:16:16;;;;;;;;;0.00;0.00;;;;;12.57;57.01;98025.69;4682326;29;103115;-78
2020/12/25 09:18:43;;;;;;;;;0.00;0.00;;;;;12.58;57.23;98027.34;4690084;29;103743;-78
2020/12/25 09:21:11;;;;;;;;;0.25;0.25;;;;;12.56;57.68;98029.47;4686860;28;104170;-78
2020/12/25 09:23:38;;;;;;;;;1.00;1.00;;;;;12.55;57.29;98033.22;4679641;28;103089;-78
2020/12/25 09:26:05;;;;;;;;;0.00;0.00;;;;;12.58;57.16;98035.47;4694823;28;102936;-78
2020/12/25 09:28:32;;;;;;;;;1.00;0.25;;;;;12.56;57.78;98024.88;4698032;28;104536;-78
2020/12/25 09:30:59;;;;;;;;;0.75;0.75;;;;;12.56;57.62;98024.06;4692936;29;104289;-78
2020/12/25 09:33:25;;;;;;;;;0.00;0.00;;;;;12.56;56.91;98024.06;4674166;29;103169;-78
2020/12/25 09:35:52;;;;;;;;;0.25;0.00;;;;;12.56;57.73;98029.47;4676031;28;102941;-78
2020/12/25 09:38:19;;;;;;;;;0.50;0.50;;;;;12.56;57.08;98030.31;4673501;29;103038;-78
2020/12/25 09:40:49;;;;;;;;;0.50;0.00;;;;;12.57;57.86;98031.09;4669806;28;109483;-83
2020/12/25 09:43:16;;;;;;;;;0.25;0.25;;;;;12.59;57.76;98032.56;4684362;29;102906;-77
2020/12/25 09:45:43;;;;;;;;;1.00;1.00;;;;;12.59;58.16;98024.41;4711553;29;102890;-77
2020/12/25 09:48:10;;;;;;;;;0.00;0.00;;;;;12.58;57.54;98028.19;4699296;29;103204;-76
2020/12/25 09:50:36;;;;;;;;;0.00;0.00;;;;;12.56;58.05;98026.75;4697006;29;103546;-77
2020/12/25 09:53:03;;;;;;;;;1.00;1.00;;;;;12.59;57.27;98029.00;4710081;29;103098;-77
2020/12/25 09:55:35;;;;;;;;;0.75;0.75;;;;;12.58;58.06;98028.19;4695796;29;102969;-77
2020/12/25 09:58:05;;;;;;;;;0.00;0.00;;;;;12.59;57.80;98031.72;4696974;29;103003;-78
2020/12/25 10:00:32;;;;;;;;;0.75;0.75;;;;;12.58;57.40;98022.75;4693354;29;103944;-78
2020/12/25 10:02:58;;;;;;;;;1.50;1.00;;;;;12.60;57.27;98030.69;4676021;29;105048;-77
2020/12/25 10:05:26;;;;;;;;;0.75;0.00;;;;;12.61;58.19;98027.72;4695003;29;102977;-78
2020/12/25 10:07:59;;;;;;;;;0.00;0.00;;;;;12.62;57.87;98028.53;4701111;29;103838;-78
2020/12/25 10:10:29;;;;;;;;;1.00;0.00;;;;;12.61;58.27;98021.50;4698943;28;104132;-78
2020/12/25 10:12:57;;;;;;;;;1.00;1.00;;;;;12.61;57.45;98024.19;4698752;29;105883;-77
2020/12/25 10:15:27;;;;;;;;;1.00;0.50;;;;;12.61;57.14;98040.47;4691283;29;103378;-77
2020/12/25 10:17:56;;;;;;;;;1.00;1.00;;;;;12.60;57.13;98025.25;4695302;28;103030;-78
2020/12/25 10:20:24;;;;;;;;;0.00;0.00;;;;;12.59;57.83;98029.00;4696941;29;105010;-78
2020/12/25 10:22:50;;;;;;;;;1.00;0.50;;;;;12.59;57.83;98026.28;4688476;29;104982;-77
2020/12/25 10:25:18;;;;;;;;;0.00;0.00;;;;;12.58;57.44;98033.59;4700523;29;103243;-78
2020/12/25 10:27:45;;;;;;;;;0.00;0.00;;;;;12.57;57.90;98022.97;4722000;29;103052;-78
2020/12/25 10:30:11;;;;;;;;;0.00;0.00;;;;;12.57;57.11;98031.09;4698525;29;105060;-78
2020/12/25 10:32:39;;;;;;;;;1.00;0.75;;;;;12.56;57.35;98033.03;4698825;28;103753;-78
2020/12/25 10:35:07;;;;;;;;;0.00;0.00;;;;;12.56;57.68;98034.91;4719321;28;102870;-77
2020/12/25 10:37:36;;;;;;;;;1.00;1.00;;;;;12.56;57.29;98041.16;4688622;29;102964;-77
2020/12/25 10:40:04;;;;;;;;;1.00;1.00;;;;;12.56;57.92;98043.03;4705266;28;105557;-77
2020/12/25 10:42:31;;;;;;;;;1.25;1.00;;;;;12.55;57.24;98033.22;4702745;29;102998;-77
2020/12/25 10:44:58;;;;;;;;;0.75;0.00;;;;;12.56;57.08;98034.91;4697843;29;103189;-77
2020/12/25 10:47:25;;;;;;;;;0.75;0.75;;;;;12.59;57.92;98045.28;4715452;29;103080;-77
2020/12/25 10:49:54;;;;;;;;;0.50;0.00;;;;;12.57;57.49;98039.25;4711309;29;104263;-77
2020/12/25 10:52:20;;;;;;;;;1.25;0.00;;;;;12.58;57.75;98041.75;4713275;29;103063;-77
2020/12/25 10:54:48;;;;;;;;;0.00;0.00;;;;;12.59;56.96;98042.56;4715989;29;102984;-77
2020/12/25 10:57:15;;;;;;;;;0.75;0.75;;;;;12.56;57.57;98040.31;4723458;28;103855;-77
2020/12/25 10:59:42;;;;;;;;;1.50;0.25;;;;;12.55;57.62;98038.66;4710257;29;103999;-73
2020/12/25 11:02:12;;;;;;;;;1.75;1.00;;;;;12.55;58.51;98044.91;4707493;29;103362;-75
2020/12/25 11:04:40;;;;;;;;;3.00;2.50;;;;;12.56;57.83;98041.16;4696401;28;103047;-77
2020/12/25 11:07:07;;;;;;;;;2.75;2.00;;;;;12.65;58.07;98039.78;4721983;28;103011;-76
2020/12/25 11:09:38;;;;;;;;;1.50;1.50;;;;;12.72;60.08;98050.53;4704076;29;104168;-76
2020/12/25 11:12:05;;;;;;;;;2.00;2.00;;;;;12.74;60.66;98043.00;4709330;28;103773;-76
2020/12/25 11:14:31;;;;;;;;;3.25;3.00;;;;;12.78;61.98;98049.63;4700396;28;102796;-76
2020/12/25 11:16:58;;;;;;;;;1.00;1.00;;;;;12.81;62.25;98054.59;4699727;29;103099;-76
2020/12/25 11:19:24;;;;;;;;;3.25;2.75;;;;;12.83;62.88;98052.50;4706781;29;104058;-77
2020/12/25 11:21:52;;;;;;;;;2.00;1.25;;;;;12.85;61.45;98053.06;4696828;29;102950;-75
2020/12/25 11:24:19;;;;;;;;;4.25;3.00;;;;;12.86;61.74;98052.03;4696340;29;103434;-75
2020/12/25 11:26:48;;;;;;;;;3.50;3.50;;;;;12.91;61.30;98046.75;4711467;28;102981;-76
2020/12/25 11:29:14;;;;;;;;;2.00;2.00;;;;;12.95;62.26;98045.22;4700295;28;104454;-76